createdAt,value
2019-05-06T00:00:27.610Z,4.55
2019-05-06T00:02:57.485Z,5.10
2019-05-06T00:05:27.282Z,5.33
2019-05-06T00:07:57.102Z,5.12
2019-05-06T00:10:30.182Z,5.10
2019-05-06T00:13:00.192Z,4.90
2019-05-06T00:15:30.274Z,5.30
2019-05-06T00:18:00.216Z,5.20
2019-05-06T00:20:30.074Z,5.70
2019-05-06T00:23:05.418Z,5.37
2019-05-06T00:26:01.082Z,5.10
2019-05-06T00:28:36.610Z,5.12
2019-05-06T00:31:13.149Z,5.35
2019-05-06T00:33:40.694Z,5.17
2019-05-06T00:36:10.637Z,5.40
2019-05-06T00:38:42.111Z,5.15
2019-05-06T00:41:16.330Z,5.47
2019-05-06T00:43:46.117Z,5.15
2019-05-06T00:46:15.963Z,5.67
2019-05-06T00:48:45.838Z,5.62
2019-05-06T00:51:15.657Z,5.97
2019-05-06T00:53:49.426Z,5.65
2019-05-06T00:56:19.241Z,6.03
2019-05-06T00:58:49.113Z,6.40
2019-05-06T01:01:27.095Z,5.83
2019-05-06T01:03:50.561Z,5.78
2019-05-06T01:06:20.354Z,5.72
2019-05-06T01:08:50.216Z,5.53
2019-05-06T01:11:20.140Z,5.05
2019-05-06T01:13:55.186Z,5.60
2019-05-06T01:16:25.057Z,5.20
2019-05-06T01:18:54.887Z,5.70
2019-05-06T01:21:24.684Z,5.55
2019-05-06T01:23:54.645Z,5.72
2019-05-06T01:26:24.457Z,5.40
2019-05-06T01:28:54.690Z,5.92
2019-05-06T01:31:33.284Z,5.10
2019-05-06T01:33:56.381Z,5.62
2019-05-06T01:36:26.218Z,5.03
2019-05-06T01:39:13.790Z,5.70
2019-05-06T01:42:04.277Z,5.80
2019-05-06T01:44:34.064Z,5.70
2019-05-06T01:47:03.885Z,5.22
2019-05-06T01:49:34.127Z,5.47
2019-05-06T01:52:04.285Z,5.42
2019-05-06T01:54:35.309Z,5.58
2019-05-06T01:57:05.115Z,5.97
2019-05-06T01:59:34.901Z,5.47
2019-05-06T02:02:05.702Z,5.37
2019-05-06T02:04:35.473Z,5.17
2019-05-06T02:07:05.294Z,5.70
2019-05-06T02:09:35.177Z,5.50
2019-05-06T02:12:05.091Z,5.62
2019-05-06T02:14:34.911Z,5.62
2019-05-06T02:17:05.030Z,5.62
2019-05-06T02:19:35.582Z,5.20
2019-05-06T02:22:24.111Z,5.60
2019-05-06T02:24:57.746Z,5.60
2019-05-06T02:27:27.578Z,5.30
2019-05-06T02:30:16.403Z,5.83
2019-05-06T02:32:55.432Z,5.65
2019-05-06T02:35:34.773Z,5.70
2019-05-06T02:38:04.886Z,5.62
2019-05-06T02:40:35.002Z,5.43
2019-05-06T02:43:05.087Z,6.08
2019-05-06T02:45:34.889Z,5.85
2019-05-06T02:48:16.269Z,6.00
2019-05-06T02:51:03.737Z,5.72
2019-05-06T02:53:33.722Z,5.20
2019-05-06T02:56:04.667Z,5.70
2019-05-06T02:58:34.597Z,5.40
2019-05-06T03:01:04.492Z,5.80
2019-05-06T03:03:34.287Z,5.72
2019-05-06T03:06:04.579Z,5.85
2019-05-06T03:08:35.710Z,5.60
2019-05-06T03:11:05.530Z,6.00
2019-05-06T03:13:36.270Z,5.90
2019-05-06T03:16:06.195Z,5.83
2019-05-06T03:18:36.139Z,6.10
2019-05-06T03:21:33.747Z,6.28
2019-05-06T03:24:33.759Z,5.70
2019-05-06T03:27:04.560Z,5.70
2019-05-06T03:29:34.936Z,6.03
2019-05-06T03:32:07.245Z,5.83
2019-05-06T03:34:57.975Z,5.90
2019-05-06T03:37:08.657Z,6.20
2019-05-06T03:39:38.704Z,5.50
2019-05-06T03:42:08.484Z,5.65
2019-05-06T03:44:39.992Z,5.92
2019-05-06T03:47:34.933Z,5.87
2019-05-06T03:50:05.758Z,6.12
2019-05-06T03:52:35.554Z,6.30
2019-05-06T03:55:05.362Z,6.08
2019-05-06T03:57:37.629Z,6.08
2019-05-06T04:00:08.865Z,6.47
2019-05-06T04:02:39.802Z,6.33
2019-05-06T04:05:13.282Z,6.23
2019-05-06T04:07:45.928Z,6.65
2019-05-06T04:10:15.240Z,6.97
2019-05-06T04:12:45.538Z,6.60
2019-05-06T04:15:16.408Z,7.08
2019-05-06T04:18:08.471Z,6.78
2019-05-06T04:21:03.818Z,7.10
2019-05-06T04:23:54.447Z,7.30
2019-05-06T04:26:39.711Z,7.22
2019-05-06T04:29:09.588Z,7.10
2019-05-06T04:31:39.331Z,7.00
2019-05-06T04:34:17.958Z,7.12
2019-05-06T04:36:44.006Z,9.30
2019-05-06T04:39:13.449Z,7.95
2019-05-06T04:41:43.569Z,7.12
2019-05-06T04:44:14.178Z,7.30
2019-05-06T04:46:44.578Z,7.53
2019-05-06T04:49:15.275Z,7.37
2019-05-06T04:51:45.449Z,7.25
2019-05-06T04:54:15.253Z,7.30
2019-05-06T04:56:45.035Z,7.12
2019-05-06T04:59:14.879Z,7.30
2019-05-06T05:01:45.790Z,7.42
2019-05-06T05:04:29.810Z,7.37
2019-05-06T05:06:47.998Z,7.17
2019-05-06T05:09:18.140Z,7.40
2019-05-06T05:12:02.759Z,8.03
2019-05-06T05:14:52.075Z,7.00
2019-05-06T05:17:36.171Z,7.47
2019-05-06T05:20:07.243Z,7.78
2019-05-06T05:22:37.081Z,8.30
2019-05-06T05:25:07.319Z,7.60
2019-05-06T05:27:37.168Z,7.92
2019-05-06T05:30:07.130Z,7.90
2019-05-06T05:32:36.965Z,7.83
2019-05-06T05:35:10.070Z,8.25
2019-05-06T05:37:41.480Z,7.87
2019-05-06T05:40:12.977Z,8.30
2019-05-06T05:42:56.054Z,7.90
2019-05-06T05:45:25.858Z,7.70
2019-05-06T05:47:57.371Z,7.65
2019-05-06T05:50:34.134Z,8.03
2019-05-06T05:53:03.958Z,7.92
2019-05-06T05:55:34.261Z,7.83
2019-05-06T05:58:04.148Z,7.97
2019-05-06T06:00:35.100Z,8.15
2019-05-06T06:03:07.098Z,8.45
2019-05-06T06:05:36.527Z,8.25
2019-05-06T06:08:06.319Z,8.80
2019-05-06T06:10:52.459Z,8.55
2019-05-06T06:13:22.441Z,8.60
2019-05-06T06:16:13.024Z,8.63
2019-05-06T06:18:56.530Z,9.60
2019-05-06T06:21:49.298Z,8.90
2019-05-06T06:24:26.227Z,8.88
2019-05-06T06:26:56.263Z,8.58
2019-05-06T06:29:26.113Z,9.23
2019-05-06T06:32:27.182Z,8.63
2019-05-06T06:35:35.321Z,8.53
2019-05-06T06:38:19.325Z,8.90
2019-05-06T06:40:49.306Z,9.20
2019-05-06T06:43:23.187Z,8.15
2019-05-06T06:45:53.206Z,8.30
2019-05-06T06:48:23.466Z,7.67
2019-05-06T06:50:54.484Z,6.10
2019-05-06T06:53:24.803Z,5.75
2019-05-06T06:56:13.643Z,5.40
2019-05-06T06:59:02.747Z,5.17
2019-05-06T07:01:39.206Z,4.40
2019-05-06T07:04:25.670Z,4.50
2019-05-06T07:06:57.128Z,4.17
2019-05-06T07:09:29.651Z,4.17
2019-05-06T07:11:58.702Z,4.58
2019-05-06T07:14:28.568Z,4.70
2019-05-06T07:16:58.467Z,4.10
2019-05-06T07:19:36.635Z,4.17
2019-05-06T07:22:07.088Z,3.80
2019-05-06T07:24:37.092Z,4.03
2019-05-06T07:27:17.650Z,3.52
2019-05-06T07:29:48.643Z,3.62
2019-05-06T07:32:20.007Z,3.27
2019-05-06T07:34:49.846Z,3.75
2019-05-06T07:37:21.957Z,4.15
2019-05-06T07:39:52.930Z,4.00
2019-05-06T07:42:32.685Z,3.95
2019-05-06T07:45:28.816Z,3.70
2019-05-06T07:48:07.176Z,3.80
2019-05-06T07:50:36.989Z,4.40
2019-05-06T07:53:06.942Z,4.03
2019-05-06T07:55:37.891Z,3.98
2019-05-06T07:58:08.015Z,4.30
2019-05-06T08:00:38.006Z,4.20
2019-05-06T08:03:08.095Z,4.20
2019-05-06T08:05:52.117Z,4.23
2019-05-06T08:08:09.845Z,3.90
2019-05-06T08:10:39.741Z,4.30
2019-05-06T08:13:09.690Z,4.67
2019-05-06T08:15:41.983Z,4.17
2019-05-06T08:18:12.560Z,4.75
2019-05-06T08:20:42.799Z,5.42
2019-05-06T08:23:34.532Z,5.03
2019-05-06T08:26:12.148Z,4.92
2019-05-06T08:28:41.062Z,5.00
2019-05-06T08:31:07.979Z,5.00
2019-05-06T08:33:37.970Z,4.80
2019-05-06T08:36:14.123Z,4.75
2019-05-06T08:38:58.826Z,4.80
2019-05-06T08:41:28.675Z,4.83
2019-05-06T08:43:58.982Z,5.03
2019-05-06T08:46:28.995Z,5.00
2019-05-06T08:48:59.007Z,4.85
2019-05-06T08:51:38.623Z,5.20
2019-05-06T08:54:17.103Z,5.12
2019-05-06T08:56:47.153Z,5.00
2019-05-06T08:59:16.970Z,4.72
2019-05-06T09:01:49.008Z,4.70
2019-05-06T09:04:18.839Z,4.80
2019-05-06T09:06:48.714Z,4.20
2019-05-06T09:09:18.656Z,4.40
2019-05-06T09:11:48.615Z,3.92
2019-05-06T09:14:18.541Z,4.22
2019-05-06T09:16:50.711Z,4.25
2019-05-06T09:19:20.107Z,4.00
2019-05-06T09:21:49.959Z,4.40
2019-05-06T09:24:19.907Z,3.90
2019-05-06T09:27:12.266Z,3.98
2019-05-06T09:29:56.749Z,3.50
2019-05-06T09:32:37.287Z,3.95
2019-05-06T09:35:08.346Z,3.55
2019-05-06T09:37:38.353Z,3.80
2019-05-06T09:40:09.445Z,4.00
2019-05-06T09:42:39.416Z,3.50
2019-05-06T09:45:12.368Z,3.77
2019-05-06T09:47:52.767Z,3.92
2019-05-06T09:50:45.448Z,4.03
2019-05-06T09:53:27.458Z,4.10
2019-05-06T09:56:15.291Z,4.00
2019-05-06T09:58:46.313Z,4.28
2019-05-06T10:01:17.113Z,4.20
2019-05-06T10:03:47.080Z,3.72
2019-05-06T10:06:17.248Z,3.90
2019-05-06T10:08:47.032Z,3.77
2019-05-06T10:11:16.942Z,3.40
2019-05-06T10:13:46.903Z,3.58
2019-05-06T10:16:16.873Z,3.30
2019-05-06T10:18:46.947Z,3.40
2019-05-06T10:21:16.882Z,3.40
2019-05-06T10:23:46.812Z,3.70
2019-05-06T10:26:16.767Z,4.03
2019-05-06T10:28:52.523Z,3.62
2019-05-06T10:31:22.600Z,3.85
2019-05-06T10:34:13.928Z,3.60
2019-05-06T10:36:55.293Z,3.83
2019-05-06T10:39:28.135Z,3.70
2019-05-06T10:42:13.559Z,3.60
2019-05-06T10:45:03.375Z,3.70
2019-05-06T10:47:34.958Z,3.77
2019-05-06T10:50:05.739Z,3.70
2019-05-06T10:52:53.258Z,3.72
2019-05-06T10:55:23.325Z,4.08
2019-05-06T10:57:54.567Z,3.98
2019-05-06T11:00:24.571Z,3.97
2019-05-06T11:03:14.396Z,3.67
2019-05-06T11:05:44.329Z,3.47
2019-05-06T11:08:14.679Z,3.85
2019-05-06T11:10:45.674Z,3.75
2019-05-06T11:13:15.993Z,3.80
2019-05-06T11:15:45.975Z,3.70
2019-05-06T11:18:15.961Z,3.60
2019-05-06T11:20:47.127Z,3.50
2019-05-06T11:23:17.131Z,3.58
2019-05-06T11:25:47.144Z,3.30
2019-05-06T11:28:35.426Z,3.27
2019-05-06T11:31:14.126Z,3.33
2019-05-06T11:34:06.316Z,3.90
2019-05-06T11:36:45.535Z,3.20
2019-05-06T11:39:15.350Z,3.30
2019-05-06T11:42:01.647Z,3.05
2019-05-06T11:44:18.099Z,3.17
2019-05-06T11:46:48.034Z,3.10
2019-05-06T11:49:17.896Z,3.00
2019-05-06T11:51:47.869Z,3.27
2019-05-06T11:54:20.700Z,3.47
2019-05-06T11:56:54.375Z,3.10
2019-05-06T11:59:22.800Z,2.90
2019-05-06T12:01:57.474Z,3.25
2019-05-06T12:04:27.848Z,3.27
2019-05-06T12:07:10.195Z,3.30
2019-05-06T12:09:33.503Z,3.33
2019-05-06T12:12:03.624Z,3.10
2019-05-06T12:14:33.559Z,3.55
2019-05-06T12:17:03.729Z,3.45
2019-05-06T12:19:33.634Z,3.37
2019-05-06T12:22:03.553Z,3.30
2019-05-06T12:24:33.570Z,3.35
2019-05-06T12:27:03.533Z,3.08
2019-05-06T12:29:33.553Z,3.50
2019-05-06T12:32:15.941Z,3.45
2019-05-06T12:34:45.847Z,3.50
2019-05-06T12:37:18.222Z,3.12
2019-05-06T12:39:53.486Z,3.60
2019-05-06T12:42:33.698Z,3.50
2019-05-06T12:45:17.696Z,3.60
2019-05-06T12:47:53.336Z,3.22
2019-05-06T12:50:24.325Z,3.10
2019-05-06T12:52:57.572Z,3.27
2019-05-06T12:55:26.618Z,3.22
2019-05-06T12:57:56.527Z,3.85
2019-05-06T13:00:28.559Z,3.22
2019-05-06T13:02:58.419Z,3.25
2019-05-06T13:05:28.701Z,3.60
2019-05-06T13:07:58.592Z,3.62
2019-05-06T13:10:28.488Z,3.35
2019-05-06T13:13:05.526Z,3.50
2019-05-06T13:15:35.673Z,3.27
2019-05-06T13:18:07.148Z,3.50
2019-05-06T13:20:37.914Z,3.62
2019-05-06T13:23:20.883Z,3.75
2019-05-06T13:25:46.966Z,3.47
2019-05-06T13:28:18.815Z,3.60
2019-05-06T13:31:11.865Z,3.83
2019-05-06T13:33:34.129Z,3.85
2019-05-06T13:36:03.371Z,3.85
2019-05-06T13:38:33.256Z,3.80
2019-05-06T13:41:03.462Z,3.80
2019-05-06T13:43:38.058Z,3.60
2019-05-06T13:46:15.049Z,3.70
2019-05-06T13:48:53.158Z,4.03
2019-05-06T13:51:27.504Z,3.62
2019-05-06T13:53:57.476Z,4.07
2019-05-06T13:56:27.457Z,4.20
2019-05-06T13:58:57.387Z,4.22
2019-05-06T14:01:29.349Z,3.95
2019-05-06T14:03:59.393Z,4.10
2019-05-06T14:06:29.348Z,3.80
2019-05-06T14:08:59.488Z,3.83
2019-05-06T14:11:29.383Z,3.90
2019-05-06T14:13:59.428Z,3.77
2019-05-06T14:16:29.374Z,3.52
2019-05-06T14:18:59.483Z,3.72
2019-05-06T14:21:32.417Z,4.08
2019-05-06T14:24:02.522Z,3.87
2019-05-06T14:26:44.714Z,3.90
2019-05-06T14:29:23.288Z,3.60
2019-05-06T14:31:53.026Z,4.03
2019-05-06T14:34:23.163Z,4.08
2019-05-06T14:36:53.548Z,3.67
2019-05-06T14:39:47.398Z,3.75
2019-05-06T14:41:58.943Z,3.62
2019-05-06T14:44:28.767Z,3.90
2019-05-06T14:47:04.009Z,4.37
2019-05-06T14:49:33.814Z,3.70
2019-05-06T14:52:03.727Z,4.00
2019-05-06T14:54:35.275Z,3.90
2019-05-06T14:57:12.199Z,4.10
2019-05-06T14:59:43.381Z,3.70
2019-05-06T15:02:13.510Z,3.80
2019-05-06T15:04:43.756Z,3.85
2019-05-06T15:07:13.698Z,3.92
2019-05-06T15:09:58.034Z,4.12
2019-05-06T15:12:15.351Z,3.90
2019-05-06T15:14:45.390Z,3.65
2019-05-06T15:17:15.327Z,3.90
2019-05-06T15:19:46.150Z,3.87
2019-05-06T15:22:15.949Z,3.80
2019-05-06T15:24:45.805Z,3.75
2019-05-06T15:27:15.707Z,3.80
2019-05-06T15:29:48.858Z,3.58
2019-05-06T15:32:26.449Z,3.95
2019-05-06T15:35:19.578Z,3.90
2019-05-06T15:37:55.544Z,4.22
2019-05-06T15:40:32.977Z,4.10
2019-05-06T15:42:57.146Z,4.50
2019-05-06T15:45:29.235Z,4.33
2019-05-06T15:47:59.062Z,4.83
2019-05-06T15:50:29.194Z,4.70
2019-05-06T15:52:59.070Z,4.58
2019-05-06T15:55:29.108Z,4.67
2019-05-06T15:57:59.007Z,4.95
2019-05-06T16:00:29.441Z,5.00
2019-05-06T16:02:59.326Z,8.60
2019-05-06T16:05:31.073Z,4.97
2019-05-06T16:08:02.900Z,5.50
2019-05-06T16:10:50.405Z,6.30
2019-05-06T16:13:05.976Z,5.80
2019-05-06T16:15:36.007Z,5.92
2019-05-06T16:18:05.910Z,5.58
2019-05-06T16:20:35.817Z,5.67
2019-05-06T16:23:15.055Z,5.17
2019-05-06T16:25:45.019Z,5.42
2019-05-06T16:28:15.114Z,5.62
2019-05-06T16:30:45.186Z,5.37
2019-05-06T16:33:18.438Z,5.57
2019-05-06T16:35:46.832Z,5.10
2019-05-06T16:38:16.664Z,5.60
2019-05-06T16:40:46.659Z,5.30
2019-05-06T16:43:18.237Z,5.25
2019-05-06T16:45:48.125Z,5.50
2019-05-06T16:48:18.024Z,5.53
2019-05-06T16:50:47.952Z,7.35
2019-05-06T16:53:17.959Z,6.47
2019-05-06T16:56:05.548Z,5.40
2019-05-06T16:58:38.214Z,5.92
2019-05-06T17:01:08.223Z,5.67
2019-05-06T17:03:55.806Z,5.97
2019-05-06T17:06:28.668Z,5.78
2019-05-06T17:08:58.591Z,6.17
2019-05-06T17:11:33.485Z,6.20
2019-05-06T17:14:00.221Z,6.60
2019-05-06T17:16:30.122Z,6.70
2019-05-06T17:19:00.104Z,6.60
2019-05-06T17:21:30.218Z,6.90
2019-05-06T17:24:02.331Z,6.65
2019-05-06T17:26:34.922Z,6.20
2019-05-06T17:29:23.606Z,6.47
2019-05-06T17:32:15.607Z,6.60
2019-05-06T17:34:49.730Z,6.60
2019-05-06T17:37:37.273Z,6.42
2019-05-06T17:40:11.786Z,6.30
2019-05-06T17:42:42.220Z,6.65
2019-05-06T17:45:32.251Z,6.75
2019-05-06T17:48:08.298Z,6.55
2019-05-06T17:50:38.211Z,6.42
2019-05-06T17:53:08.357Z,6.47
2019-05-06T17:55:38.273Z,6.47
2019-05-06T17:58:08.390Z,6.25
2019-05-06T18:00:38.360Z,6.20
2019-05-06T18:03:08.223Z,6.25
2019-05-06T18:05:38.286Z,6.10
2019-05-06T18:08:08.441Z,6.70
2019-05-06T18:10:38.327Z,6.17
2019-05-06T18:13:09.422Z,6.42
2019-05-06T18:15:39.355Z,6.03
2019-05-06T18:18:09.453Z,6.15
2019-05-06T18:20:39.359Z,5.80
2019-05-06T18:23:09.429Z,6.20
2019-05-06T18:25:39.325Z,6.10
2019-05-06T18:28:22.790Z,6.00
2019-05-06T18:30:52.437Z,6.03
2019-05-06T18:33:22.601Z,5.83
2019-05-06T18:35:53.613Z,6.10
2019-05-06T18:38:23.739Z,5.60
2019-05-06T18:40:53.680Z,5.77
2019-05-06T18:43:23.685Z,5.92
2019-05-06T18:45:54.930Z,5.20
2019-05-06T18:48:28.475Z,5.70
2019-05-06T18:50:56.597Z,5.75
2019-05-06T18:53:26.479Z,5.50
2019-05-06T18:55:56.423Z,5.42
2019-05-06T18:58:26.421Z,5.47
2019-05-06T19:00:56.353Z,5.45
2019-05-06T19:03:28.110Z,5.70
2019-05-06T19:05:58.274Z,5.35
2019-05-06T19:08:42.978Z,5.43
2019-05-06T19:11:14.136Z,5.10
2019-05-06T19:13:44.387Z,5.20
2019-05-06T19:16:17.463Z,5.00
2019-05-06T19:18:51.981Z,5.70
2019-05-06T19:21:24.292Z,5.37
2019-05-06T19:23:54.827Z,5.87
2019-05-06T19:26:24.494Z,5.95
2019-05-06T19:28:54.342Z,5.37
2019-05-06T19:31:24.269Z,5.87
2019-05-06T19:33:54.182Z,5.60
2019-05-06T19:36:24.207Z,5.55
2019-05-06T19:38:54.180Z,5.72
2019-05-06T19:41:25.826Z,5.53
2019-05-06T19:43:55.838Z,5.35
2019-05-06T19:46:28.881Z,5.40
2019-05-06T19:48:59.087Z,5.67
2019-05-06T19:51:29.094Z,5.53
2019-05-06T19:53:59.260Z,6.05
2019-05-06T19:56:29.781Z,6.20
2019-05-06T19:59:01.969Z,6.05
2019-05-06T20:01:32.324Z,5.78
2019-05-06T20:04:03.487Z,5.70
2019-05-06T20:06:39.768Z,6.65
2019-05-06T20:09:44.300Z,6.15
2019-05-06T20:12:23.020Z,5.87
2019-05-06T20:14:54.630Z,5.80
2019-05-06T20:17:24.566Z,5.67
2019-05-06T20:20:02.748Z,5.30
2019-05-06T20:22:32.631Z,5.67
2019-05-06T20:25:03.154Z,5.75
2019-05-06T20:27:33.757Z,5.33
2019-05-06T20:30:03.857Z,5.78
2019-05-06T20:32:33.866Z,5.30
2019-05-06T20:35:06.328Z,5.28
2019-05-06T20:37:35.492Z,5.62
2019-05-06T20:40:05.885Z,5.72
2019-05-06T20:42:35.799Z,5.70
2019-05-06T20:45:07.503Z,5.97
2019-05-06T20:47:37.867Z,5.78
2019-05-06T20:50:08.040Z,5.75
2019-05-06T20:52:38.032Z,6.25
2019-05-06T20:55:12.800Z,6.30
2019-05-06T20:57:42.214Z,6.47
2019-05-06T21:00:12.927Z,6.53
2019-05-06T21:02:43.135Z,5.95
2019-05-06T21:05:14.011Z,6.00
2019-05-06T21:07:47.283Z,6.47
2019-05-06T21:10:18.698Z,6.00
2019-05-06T21:12:48.661Z,6.08
2019-05-06T21:15:18.770Z,6.75
2019-05-06T21:17:48.702Z,6.28
2019-05-06T21:20:19.157Z,6.30
2019-05-06T21:22:49.543Z,6.28
2019-05-06T21:25:19.518Z,6.40
2019-05-06T21:27:49.865Z,5.70
2019-05-06T21:30:20.562Z,5.72
2019-05-06T21:32:52.119Z,6.10
2019-05-06T21:35:22.325Z,6.33
2019-05-06T21:37:52.930Z,6.37
2019-05-06T21:40:23.049Z,6.10
2019-05-06T21:42:53.123Z,6.08
2019-05-06T21:45:23.142Z,6.50
2019-05-06T21:47:53.196Z,6.55
2019-05-06T21:50:23.212Z,6.45
2019-05-06T21:52:54.281Z,6.40
2019-05-06T21:55:28.098Z,6.22
2019-05-06T21:57:58.226Z,6.75
2019-05-06T22:01:06.465Z,6.53
2019-05-06T22:03:38.112Z,6.83
2019-05-06T22:06:08.022Z,7.35
2019-05-06T22:08:37.990Z,7.12
2019-05-06T22:11:07.807Z,6.70
2019-05-06T22:13:37.749Z,7.22
2019-05-06T22:16:07.660Z,7.08
2019-05-06T22:18:37.637Z,7.15
2019-05-06T22:21:26.581Z,6.83
2019-05-06T22:23:58.314Z,6.83
2019-05-06T22:26:28.980Z,7.47
2019-05-06T22:28:59.095Z,7.00
2019-05-06T22:31:32.405Z,6.92
2019-05-06T22:34:02.070Z,7.03
2019-05-06T22:36:32.451Z,7.08
2019-05-06T22:39:04.930Z,6.87
2019-05-06T22:41:36.861Z,6.67
2019-05-06T22:44:13.569Z,6.90
2019-05-06T22:46:38.909Z,7.28
2019-05-06T22:49:08.827Z,7.15
2019-05-06T22:51:38.893Z,7.40
2019-05-06T22:54:08.967Z,7.00
2019-05-06T22:56:39.276Z,6.67
2019-05-06T22:59:09.311Z,7.30
2019-05-06T23:01:58.239Z,7.20
2019-05-06T23:04:29.578Z,6.80
2019-05-06T23:06:59.411Z,6.95
2019-05-06T23:09:29.262Z,7.90
2019-05-06T23:11:59.066Z,7.50
2019-05-06T23:14:34.305Z,6.90
2019-05-06T23:17:02.752Z,7.50
2019-05-06T23:19:32.083Z,8.08
2019-05-06T23:22:04.055Z,7.47
2019-05-06T23:24:33.508Z,7.28
2019-05-06T23:27:03.448Z,8.08
2019-05-06T23:29:33.293Z,8.05
2019-05-06T23:32:03.300Z,7.95
2019-05-06T23:34:33.243Z,8.03
2019-05-06T23:37:28.113Z,7.87
2019-05-06T23:40:37.549Z,8.00
2019-05-06T23:43:43.570Z,8.17
2019-05-06T23:46:49.681Z,8.08
2019-05-06T23:49:55.743Z,7.75
2019-05-06T23:53:02.944Z,7.60
2019-05-06T23:56:09.034Z,8.00
2019-05-06T23:58:39.009Z,8.40
